createdAt,value
2019-03-31T00:01:08.811Z,19.27
2019-03-31T00:01:55.952Z,19.25
2019-03-31T00:02:55.991Z,19.24
2019-03-31T00:03:55.983Z,19.26
2019-03-31T00:04:56.065Z,19.28
2019-03-31T00:05:56.114Z,19.28
2019-03-31T00:06:56.074Z,19.27
2019-03-31T00:07:55.927Z,19.26
2019-03-31T00:08:56.040Z,19.25
2019-03-31T00:09:56.119Z,19.25
2019-03-31T00:10:56.160Z,19.24
2019-03-31T00:11:55.947Z,19.24
2019-03-31T00:12:55.820Z,19.24
2019-03-31T00:13:55.879Z,19.23
2019-03-31T00:14:55.855Z,19.23
2019-03-31T00:15:55.835Z,19.2
2019-03-31T00:16:56.064Z,19.21
2019-03-31T00:17:56.030Z,19.21
2019-03-31T00:18:56.268Z,19.21
2019-03-31T00:19:56.040Z,19.21
2019-03-31T00:20:56.097Z,19.21
2019-03-31T00:21:55.954Z,19.21
2019-03-31T00:22:56.054Z,19.21
2019-03-31T00:23:56.107Z,19.18
2019-03-31T00:24:56.175Z,19.18
2019-03-31T00:25:56.015Z,19.21
2019-03-31T00:26:56.055Z,19.2
2019-03-31T00:27:55.817Z,19.21
2019-03-31T00:28:56.128Z,19.2
2019-03-31T00:29:56.070Z,19.18
2019-03-31T00:30:55.876Z,19.21
2019-03-31T00:31:55.879Z,19.2
2019-03-31T00:32:55.925Z,19.17
2019-03-31T00:33:55.970Z,19.18
2019-03-31T00:34:55.949Z,19.18
2019-03-31T00:35:55.929Z,19.17
2019-03-31T00:36:56.038Z,19.17
2019-03-31T00:37:55.985Z,19.17
2019-03-31T00:38:55.856Z,19.15
2019-03-31T00:39:56.263Z,19.17
2019-03-31T00:40:56.117Z,19.14
2019-03-31T00:41:56.134Z,19.17
2019-03-31T00:42:56.146Z,19.17
2019-03-31T00:43:56.055Z,19.17
2019-03-31T00:44:56.154Z,19.17
2019-03-31T00:45:56.153Z,19.17
2019-03-31T00:46:55.876Z,19.15
2019-03-31T00:47:55.978Z,19.14
2019-03-31T00:48:55.942Z,19.14
2019-03-31T00:49:55.917Z,19.16
2019-03-31T00:50:56.018Z,19.14
2019-03-31T00:51:55.881Z,19.15
2019-03-31T00:52:55.882Z,19.15
2019-03-31T00:53:55.977Z,19.17
2019-03-31T00:54:56.208Z,19.16
2019-03-31T00:55:56.008Z,19.13
2019-03-31T00:56:55.941Z,19.13
2019-03-31T00:57:55.934Z,19.14
2019-03-31T00:58:56.046Z,19.1
2019-03-31T00:59:56.032Z,19.1
2019-03-31T01:00:56.146Z,19.11
2019-03-31T01:01:56.192Z,19.11
2019-03-31T01:02:55.868Z,19.1
2019-03-31T01:03:56.035Z,19.12
2019-03-31T01:04:56.126Z,19.09
2019-03-31T01:05:56.079Z,19.1
2019-03-31T01:06:55.831Z,19.12
2019-03-31T01:07:55.998Z,19.1
2019-03-31T01:08:55.929Z,19.12
2019-03-31T01:09:55.976Z,19.12
2019-03-31T01:10:58.026Z,19.11
2019-03-31T01:11:56.016Z,19.11
2019-03-31T01:12:56.113Z,19.11
2019-03-31T01:13:55.957Z,19.11
2019-03-31T01:14:55.956Z,19.1
2019-03-31T01:15:55.985Z,19.12
2019-03-31T01:16:56.062Z,19.11
2019-03-31T01:17:56.026Z,19.12
2019-03-31T01:18:56.049Z,19.1
2019-03-31T01:19:56.046Z,19.1
2019-03-31T01:20:55.848Z,19.09
2019-03-31T01:21:56.036Z,19.08
2019-03-31T01:22:56.077Z,19.09
2019-03-31T01:23:56.399Z,19.09
2019-03-31T01:24:55.824Z,19.09
2019-03-31T01:25:55.971Z,19.09
2019-03-31T01:26:56.953Z,19.12
2019-03-31T01:27:55.919Z,19.08
2019-03-31T01:28:55.957Z,19.1
2019-03-31T01:29:55.987Z,19.1
2019-03-31T01:30:56.223Z,19.09
2019-03-31T01:31:55.947Z,19.06
2019-03-31T01:32:55.991Z,19.06
2019-03-31T01:33:55.938Z,19.06
2019-03-31T01:34:55.983Z,19.07
2019-03-31T01:35:56.158Z,19.05
2019-03-31T01:36:56.096Z,19.06
2019-03-31T01:37:56.100Z,19.06
2019-03-31T01:38:56.142Z,19.05
2019-03-31T01:39:56.147Z,19.03
2019-03-31T01:40:56.142Z,19.07
2019-03-31T01:41:56.188Z,19.07
2019-03-31T01:42:56.234Z,19.07
2019-03-31T01:43:55.826Z,19.05
2019-03-31T01:44:56.079Z,19.05
2019-03-31T01:45:55.877Z,19.06
2019-03-31T01:46:55.975Z,19.05
2019-03-31T01:47:55.996Z,19.05
2019-03-31T01:48:55.914Z,19.05
2019-03-31T01:49:55.784Z,19.05
2019-03-31T01:50:55.929Z,19.05
2019-03-31T01:51:56.031Z,19.05
2019-03-31T01:52:55.824Z,19.05
2019-03-31T01:53:55.937Z,19.02
2019-03-31T01:54:56.119Z,19.02
2019-03-31T01:55:55.981Z,19.03
2019-03-31T01:56:56.087Z,19.06
2019-03-31T01:57:56.093Z,19.01
2019-03-31T01:58:56.111Z,19.02
2019-03-31T01:59:56.279Z,19.03
2019-03-31T02:00:56.059Z,19.02
2019-03-31T02:02:05.014Z,19.06
2019-03-31T02:02:55.951Z,19.02
2019-03-31T02:03:55.797Z,19.01
2019-03-31T02:04:55.876Z,19.01
2019-03-31T02:05:55.810Z,18.98
2019-03-31T02:06:56.000Z,18.99
2019-03-31T02:07:56.000Z,18.98
2019-03-31T02:08:55.831Z,19
2019-03-31T02:09:55.919Z,19
2019-03-31T02:10:55.992Z,19
2019-03-31T02:11:55.903Z,18.98
2019-03-31T02:12:56.108Z,18.99
2019-03-31T02:13:56.087Z,19
2019-03-31T02:14:55.979Z,18.98
2019-03-31T02:15:56.107Z,18.99
2019-03-31T02:16:55.974Z,18.98
2019-03-31T02:17:56.122Z,18.97
2019-03-31T02:18:56.102Z,18.99
2019-03-31T02:19:56.080Z,18.97
2019-03-31T02:20:55.921Z,18.98
2019-03-31T02:21:55.985Z,18.98
2019-03-31T02:22:55.849Z,18.97
2019-03-31T02:23:56.181Z,18.99
2019-03-31T02:24:58.796Z,18.97
2019-03-31T02:25:55.883Z,18.98
2019-03-31T02:26:55.999Z,18.98
2019-03-31T02:27:55.893Z,18.99
2019-03-31T02:28:56.508Z,18.98
2019-03-31T02:29:55.951Z,18.98
2019-03-31T02:30:56.081Z,18.96
2019-03-31T02:31:55.924Z,18.95
2019-03-31T02:32:56.303Z,18.97
2019-03-31T02:33:56.134Z,18.98
2019-03-31T02:34:56.120Z,18.95
2019-03-31T02:35:56.108Z,18.95
2019-03-31T02:36:56.071Z,18.98
2019-03-31T02:37:56.189Z,18.97
2019-03-31T02:38:55.833Z,18.95
2019-03-31T02:39:55.994Z,18.96
2019-03-31T02:40:55.891Z,18.96
2019-03-31T02:41:56.010Z,18.97
2019-03-31T02:42:55.936Z,18.94
2019-03-31T02:43:55.814Z,18.94
2019-03-31T02:44:56.003Z,18.92
2019-03-31T02:45:55.930Z,18.95
2019-03-31T02:46:55.913Z,18.93
2019-03-31T02:47:55.882Z,18.94
2019-03-31T02:48:55.942Z,18.93
2019-03-31T02:49:56.087Z,18.93
2019-03-31T02:50:55.839Z,18.94
2019-03-31T02:51:55.998Z,18.93
2019-03-31T02:52:56.002Z,18.92
2019-03-31T02:53:56.099Z,18.92
2019-03-31T02:54:55.898Z,18.94
2019-03-31T02:55:56.183Z,18.93
2019-03-31T02:56:55.921Z,18.92
2019-03-31T02:57:55.876Z,18.94
2019-03-31T02:58:55.848Z,18.93
2019-03-31T02:59:55.847Z,18.89
2019-03-31T03:00:55.997Z,18.92
2019-03-31T03:01:55.957Z,18.89
2019-03-31T03:02:55.872Z,18.93
2019-03-31T03:03:55.998Z,18.93
2019-03-31T03:04:56.232Z,18.89
2019-03-31T03:05:56.090Z,18.88
2019-03-31T03:06:55.839Z,18.86
2019-03-31T03:07:55.985Z,18.89
2019-03-31T03:08:56.012Z,18.88
2019-03-31T03:09:56.011Z,18.92
2019-03-31T03:10:56.094Z,18.92
2019-03-31T03:11:56.020Z,18.89
2019-03-31T03:12:56.028Z,18.88
2019-03-31T03:13:56.089Z,18.89
2019-03-31T03:14:55.887Z,18.88
2019-03-31T03:15:55.821Z,18.87
2019-03-31T03:16:55.808Z,18.88
2019-03-31T03:17:55.900Z,18.88
2019-03-31T03:18:55.998Z,18.89
2019-03-31T03:19:55.938Z,18.87
2019-03-31T03:20:55.966Z,18.87
2019-03-31T03:21:55.876Z,18.87
2019-03-31T03:22:55.921Z,18.88
2019-03-31T03:23:56.014Z,18.88
2019-03-31T03:24:56.099Z,18.87
2019-03-31T03:25:57.303Z,18.84
2019-03-31T03:26:56.298Z,18.84
2019-03-31T03:27:56.038Z,18.86
2019-03-31T03:28:55.949Z,18.85
2019-03-31T03:29:55.985Z,18.85
2019-03-31T03:30:58.240Z,18.85
2019-03-31T03:31:56.264Z,18.84
2019-03-31T03:33:19.386Z,18.84
2019-03-31T03:33:56.040Z,18.85
2019-03-31T03:34:56.228Z,18.83
2019-03-31T03:35:55.944Z,18.85
2019-03-31T03:36:55.997Z,18.85
2019-03-31T03:37:55.842Z,18.84
2019-03-31T03:38:55.887Z,18.86
2019-03-31T03:39:56.040Z,18.85
2019-03-31T03:40:55.942Z,18.83
2019-03-31T03:41:56.136Z,18.83
2019-03-31T03:42:55.906Z,18.84
2019-03-31T03:44:03.113Z,18.83
2019-03-31T03:44:55.967Z,18.84
2019-03-31T03:45:56.034Z,18.82
2019-03-31T03:46:56.014Z,18.82
2019-03-31T03:47:56.048Z,18.83
2019-03-31T03:48:56.613Z,18.85
2019-03-31T03:49:56.015Z,18.84
2019-03-31T03:50:56.404Z,18.87
2019-03-31T03:51:55.851Z,18.87
2019-03-31T03:52:55.880Z,18.89
2019-03-31T03:53:55.953Z,18.91
2019-03-31T03:54:55.858Z,18.92
2019-03-31T03:55:55.860Z,18.94
2019-03-31T03:56:55.896Z,18.95
2019-03-31T03:57:55.852Z,18.95
2019-03-31T03:58:55.943Z,18.98
2019-03-31T03:59:55.858Z,18.98
2019-03-31T04:00:55.983Z,18.99
2019-03-31T04:01:55.932Z,19.01
2019-03-31T04:02:56.029Z,19.03
2019-03-31T04:03:55.989Z,19.05
2019-03-31T04:04:56.083Z,19.08
2019-03-31T04:05:55.955Z,19.08
2019-03-31T04:06:57.198Z,19.1
2019-03-31T04:07:55.979Z,19.09
2019-03-31T04:08:56.025Z,19.13
2019-03-31T04:09:56.111Z,19.14
2019-03-31T04:10:55.780Z,19.14
2019-03-31T04:11:56.011Z,19.2
2019-03-31T04:12:55.922Z,19.2
2019-03-31T04:13:55.846Z,19.21
2019-03-31T04:14:55.889Z,19.21
2019-03-31T04:15:55.979Z,19.24
2019-03-31T04:16:55.807Z,19.22
2019-03-31T04:17:55.903Z,19.25
2019-03-31T04:18:55.917Z,19.25
2019-03-31T04:19:55.993Z,19.28
2019-03-31T04:20:56.003Z,19.31
2019-03-31T04:21:55.966Z,19.32
2019-03-31T04:22:56.143Z,19.32
2019-03-31T04:23:56.074Z,19.35
2019-03-31T04:24:55.996Z,19.36
2019-03-31T04:25:56.100Z,19.37
2019-03-31T04:26:56.054Z,19.35
2019-03-31T04:27:56.015Z,19.4
2019-03-31T04:28:56.141Z,19.39
2019-03-31T04:29:55.903Z,19.4
2019-03-31T04:30:55.769Z,19.4
2019-03-31T04:31:55.932Z,19.41
2019-03-31T04:32:55.806Z,19.42
2019-03-31T04:33:55.827Z,19.44
2019-03-31T04:34:55.838Z,19.45
2019-03-31T04:35:55.832Z,19.46
2019-03-31T04:36:55.823Z,19.46
2019-03-31T04:37:56.026Z,19.47
2019-03-31T04:39:01.186Z,19.5
2019-03-31T04:39:56.001Z,19.47
2019-03-31T04:40:55.897Z,19.48
2019-03-31T04:41:55.934Z,19.5
2019-03-31T04:42:56.043Z,19.52
2019-03-31T04:43:56.008Z,19.52
2019-03-31T04:44:55.979Z,19.5
2019-03-31T04:45:55.991Z,19.51
2019-03-31T04:46:56.087Z,19.52
2019-03-31T04:47:56.155Z,19.54
2019-03-31T04:48:55.835Z,19.54
2019-03-31T04:49:55.859Z,19.53
2019-03-31T04:50:55.786Z,19.53
2019-03-31T04:51:55.899Z,19.55
2019-03-31T04:52:55.833Z,19.53
2019-03-31T04:53:55.820Z,19.55
2019-03-31T04:54:55.965Z,19.53
2019-03-31T04:55:55.869Z,19.55
2019-03-31T04:56:55.912Z,19.56
2019-03-31T04:57:55.993Z,19.56
2019-03-31T04:58:56.499Z,19.54
2019-03-31T04:59:55.995Z,19.55
2019-03-31T05:00:56.115Z,19.56
2019-03-31T05:01:56.044Z,19.56
2019-03-31T05:02:56.002Z,19.55
2019-03-31T05:04:05.703Z,19.56
2019-03-31T05:04:55.974Z,19.56
2019-03-31T05:05:56.082Z,19.56
2019-03-31T05:06:55.887Z,19.54
2019-03-31T05:07:55.734Z,19.54
2019-03-31T05:08:56.055Z,19.56
2019-03-31T05:09:55.864Z,19.55
2019-03-31T05:10:55.767Z,19.56
2019-03-31T05:11:55.916Z,19.56
2019-03-31T05:12:55.808Z,19.55
2019-03-31T05:13:55.858Z,19.54
2019-03-31T05:14:55.919Z,19.54
2019-03-31T05:15:55.838Z,19.54
2019-03-31T05:16:55.904Z,19.55
2019-03-31T05:17:55.903Z,19.56
2019-03-31T05:18:56.078Z,19.55
2019-03-31T05:19:56.441Z,19.54
2019-03-31T05:20:56.441Z,19.54
2019-03-31T05:21:55.934Z,19.53
2019-03-31T05:22:55.965Z,19.54
2019-03-31T05:23:55.983Z,19.54
2019-03-31T05:24:55.851Z,19.55
2019-03-31T05:25:55.763Z,19.53
2019-03-31T05:26:55.917Z,19.54
2019-03-31T05:27:55.841Z,19.54
2019-03-31T05:28:55.826Z,19.52
2019-03-31T05:29:55.822Z,19.53
2019-03-31T05:30:55.803Z,19.54
2019-03-31T05:31:55.888Z,19.55
2019-03-31T05:32:55.879Z,19.51
2019-03-31T05:33:55.881Z,19.53
2019-03-31T05:34:55.932Z,19.53
2019-03-31T05:35:55.926Z,19.53
2019-03-31T05:36:56.033Z,19.52
2019-03-31T05:37:55.948Z,19.51
2019-03-31T05:38:56.060Z,19.5
2019-03-31T05:39:56.007Z,19.51
2019-03-31T05:40:56.048Z,19.48
2019-03-31T05:41:56.051Z,19.48
2019-03-31T05:42:56.106Z,19.5
2019-03-31T05:44:06.329Z,19.48
2019-03-31T05:44:55.777Z,19.48
2019-03-31T05:45:55.732Z,19.48
2019-03-31T05:46:55.858Z,19.48
2019-03-31T05:47:55.779Z,19.5
2019-03-31T05:48:55.867Z,19.51
2019-03-31T05:49:55.817Z,19.48
2019-03-31T05:50:55.869Z,19.47
2019-03-31T05:51:55.859Z,19.45
2019-03-31T05:52:55.992Z,19.46
2019-03-31T05:53:55.883Z,19.46
2019-03-31T05:54:55.859Z,19.47
2019-03-31T05:55:56.020Z,19.46
2019-03-31T05:56:55.898Z,19.45
2019-03-31T05:57:55.930Z,19.45
2019-03-31T05:58:56.094Z,19.45
2019-03-31T05:59:55.943Z,19.45
2019-03-31T06:00:55.885Z,19.42
2019-03-31T06:01:55.833Z,19.43
2019-03-31T06:02:55.852Z,19.43
2019-03-31T06:03:55.868Z,19.43
2019-03-31T06:04:55.813Z,19.44
2019-03-31T06:05:55.974Z,19.42
2019-03-31T06:06:55.990Z,19.41
2019-03-31T06:07:55.838Z,19.42
2019-03-31T06:08:55.842Z,19.4
2019-03-31T06:09:55.954Z,19.43
2019-03-31T06:10:55.865Z,19.41
2019-03-31T06:11:55.907Z,19.43
2019-03-31T06:12:55.978Z,19.41
2019-03-31T06:13:56.008Z,19.43
2019-03-31T06:14:55.926Z,19.41
2019-03-31T06:15:55.929Z,19.41
2019-03-31T06:16:56.081Z,19.41
2019-03-31T06:17:55.966Z,19.4
2019-03-31T06:18:55.968Z,19.4
2019-03-31T06:19:55.957Z,19.39
2019-03-31T06:20:55.779Z,19.41
2019-03-31T06:21:55.728Z,19.42
2019-03-31T06:22:55.915Z,19.4
2019-03-31T06:23:55.754Z,19.4
2019-03-31T06:24:55.937Z,19.45
2019-03-31T06:25:55.887Z,19.42
2019-03-31T06:26:55.775Z,19.41
2019-03-31T06:27:55.807Z,19.42
2019-03-31T06:28:55.893Z,19.42
2019-03-31T06:29:55.871Z,19.44
2019-03-31T06:30:55.849Z,19.44
2019-03-31T06:31:55.840Z,19.42
2019-03-31T06:32:55.889Z,19.43
2019-03-31T06:33:55.882Z,19.45
2019-03-31T06:34:55.950Z,19.43
2019-03-31T06:35:56.020Z,19.44
2019-03-31T06:36:55.939Z,19.46
2019-03-31T06:37:55.778Z,19.45
2019-03-31T06:38:55.767Z,19.45
2019-03-31T06:39:55.773Z,19.43
2019-03-31T06:40:55.852Z,19.45
2019-03-31T06:41:55.812Z,19.45
2019-03-31T06:42:55.775Z,19.43
2019-03-31T06:43:55.780Z,19.46
2019-03-31T06:44:55.841Z,19.44
2019-03-31T06:45:56.077Z,19.45
2019-03-31T06:46:55.943Z,19.45
2019-03-31T06:47:55.857Z,19.46
2019-03-31T06:48:56.043Z,19.47
2019-03-31T06:49:56.017Z,19.46
2019-03-31T06:50:55.905Z,19.46
2019-03-31T06:51:55.908Z,19.45
2019-03-31T06:52:55.945Z,19.47
2019-03-31T06:53:56.006Z,19.45
2019-03-31T06:54:55.950Z,19.45
2019-03-31T06:55:55.699Z,19.48
2019-03-31T06:56:55.731Z,19.47
2019-03-31T06:57:55.703Z,19.5
2019-03-31T06:58:55.725Z,19.47
2019-03-31T06:59:55.833Z,19.47
2019-03-31T07:00:55.739Z,19.48
2019-03-31T07:01:55.879Z,19.48
2019-03-31T07:02:55.888Z,19.5
2019-03-31T07:03:55.786Z,19.48
2019-03-31T07:05:02.302Z,19.48
2019-03-31T07:05:55.829Z,19.48
2019-03-31T07:06:55.833Z,19.5
2019-03-31T07:07:55.876Z,19.5
2019-03-31T07:08:55.872Z,19.5
2019-03-31T07:09:55.968Z,19.51
2019-03-31T07:10:55.869Z,19.5
2019-03-31T07:11:55.947Z,19.5
2019-03-31T07:12:59.781Z,19.48
2019-03-31T07:13:55.930Z,19.48
2019-03-31T07:14:55.858Z,19.5
2019-03-31T07:15:55.751Z,19.48
2019-03-31T07:16:55.756Z,19.47
2019-03-31T07:17:55.737Z,19.48
2019-03-31T07:18:55.899Z,19.5
2019-03-31T07:19:55.824Z,19.46
2019-03-31T07:20:55.809Z,19.5
2019-03-31T07:21:55.886Z,19.51
2019-03-31T07:22:55.835Z,19.51
2019-03-31T07:23:55.843Z,19.47
2019-03-31T07:24:55.908Z,19.52
2019-03-31T07:25:55.867Z,19.5
2019-03-31T07:26:55.867Z,19.52
2019-03-31T07:27:55.894Z,19.48
2019-03-31T07:28:56.148Z,19.51
2019-03-31T07:29:56.254Z,19.5
2019-03-31T07:30:59.765Z,19.5
2019-03-31T07:31:55.937Z,19.48
2019-03-31T07:32:56.070Z,19.5
2019-03-31T07:33:55.638Z,19.5
2019-03-31T07:34:55.692Z,19.5
2019-03-31T07:35:55.869Z,19.48
2019-03-31T07:36:55.690Z,19.52
2019-03-31T07:37:55.879Z,19.51
2019-03-31T07:38:55.917Z,19.47
2019-03-31T07:39:56.072Z,19.48
2019-03-31T07:41:06.589Z,19.5
2019-03-31T07:41:56.520Z,19.51
2019-03-31T07:42:56.264Z,19.5
2019-03-31T07:43:55.831Z,19.52
2019-03-31T07:44:55.924Z,19.5
2019-03-31T07:45:56.335Z,19.48
2019-03-31T07:46:55.862Z,19.5
2019-03-31T07:47:55.897Z,19.46
2019-03-31T07:48:55.947Z,19.48
2019-03-31T07:49:56.075Z,19.5
2019-03-31T07:50:56.237Z,19.5
2019-03-31T07:51:55.682Z,19.47
2019-03-31T07:52:55.759Z,19.5
2019-03-31T07:53:57.854Z,19.5
2019-03-31T07:54:55.735Z,19.47
2019-03-31T07:55:55.762Z,19.48
2019-03-31T07:56:55.760Z,19.47
2019-03-31T07:57:55.834Z,19.46
2019-03-31T07:58:56.364Z,19.48
2019-03-31T07:59:57.187Z,19.47
2019-03-31T08:00:55.914Z,19.48
2019-03-31T08:01:55.874Z,19.48
2019-03-31T08:02:55.878Z,19.5
2019-03-31T08:03:55.869Z,19.46
2019-03-31T08:04:55.856Z,19.47
2019-03-31T08:05:56.003Z,19.46
2019-03-31T08:06:55.954Z,19.48
2019-03-31T08:07:55.911Z,19.5
2019-03-31T08:08:55.906Z,19.47
2019-03-31T08:09:56.028Z,19.47
2019-03-31T08:10:55.739Z,19.5
2019-03-31T08:11:55.947Z,19.48
2019-03-31T08:12:55.871Z,19.48
2019-03-31T08:13:55.754Z,19.48
2019-03-31T08:14:55.870Z,19.46
2019-03-31T08:15:55.725Z,19.5
2019-03-31T08:16:55.729Z,19.48
2019-03-31T08:17:55.863Z,19.47
2019-03-31T08:18:55.783Z,19.46
2019-03-31T08:19:55.878Z,19.48
2019-03-31T08:20:55.837Z,19.47
2019-03-31T08:21:55.847Z,19.47
2019-03-31T08:22:57.436Z,19.48
2019-03-31T08:23:55.845Z,19.48
2019-03-31T08:24:55.950Z,19.47
2019-03-31T08:25:55.879Z,19.48
2019-03-31T08:26:55.914Z,19.45
2019-03-31T08:27:55.685Z,19.46
2019-03-31T08:28:58.854Z,19.47
2019-03-31T08:30:01.606Z,19.46
2019-03-31T08:30:55.715Z,19.48
2019-03-31T08:31:55.764Z,19.47
2019-03-31T08:32:55.805Z,19.47
2019-03-31T08:33:55.757Z,19.48
2019-03-31T08:34:55.757Z,19.48
2019-03-31T08:35:55.809Z,19.47
2019-03-31T08:36:55.915Z,19.48
2019-03-31T08:37:55.875Z,19.5
2019-03-31T08:38:55.836Z,19.5
2019-03-31T08:39:55.867Z,19.48
2019-03-31T08:40:55.956Z,19.47
2019-03-31T08:41:55.955Z,19.46
2019-03-31T08:42:56.099Z,19.46
2019-03-31T08:43:56.039Z,19.48
2019-03-31T08:44:55.921Z,19.46
2019-03-31T08:45:55.908Z,19.47
2019-03-31T08:46:55.699Z,19.47
2019-03-31T08:47:55.798Z,19.46
2019-03-31T08:48:55.854Z,19.45
2019-03-31T08:49:55.844Z,19.45
2019-03-31T08:50:55.717Z,19.48
2019-03-31T08:51:55.699Z,19.45
2019-03-31T08:52:55.866Z,19.47
2019-03-31T08:53:55.768Z,19.46
2019-03-31T08:54:56.027Z,19.45
2019-03-31T08:55:56.879Z,19.47
2019-03-31T08:56:55.778Z,19.45
2019-03-31T08:57:55.862Z,19.47
2019-03-31T08:58:56.065Z,19.46
2019-03-31T08:59:55.854Z,19.45
2019-03-31T09:00:55.807Z,19.47
2019-03-31T09:01:55.824Z,19.45
2019-03-31T09:02:56.026Z,19.45
2019-03-31T09:03:55.936Z,19.45
2019-03-31T09:04:55.895Z,19.46
2019-03-31T09:06:02.882Z,19.44
2019-03-31T09:06:55.758Z,19.44
2019-03-31T09:07:55.701Z,19.45
2019-03-31T09:08:55.820Z,19.44
2019-03-31T09:09:55.713Z,19.45
2019-03-31T09:10:55.838Z,19.43
2019-03-31T09:11:55.890Z,19.42
2019-03-31T09:12:55.765Z,19.43
2019-03-31T09:13:55.995Z,19.45
2019-03-31T09:14:55.802Z,19.45
2019-03-31T09:15:55.883Z,19.46
2019-03-31T09:16:55.783Z,19.45
2019-03-31T09:17:55.827Z,19.47
2019-03-31T09:18:55.951Z,19.5
2019-03-31T09:19:55.854Z,19.48
2019-03-31T09:20:55.844Z,19.46
2019-03-31T09:21:56.581Z,19.48
2019-03-31T09:22:55.878Z,19.5
2019-03-31T09:23:55.981Z,19.52
2019-03-31T09:24:56.005Z,19.5
2019-03-31T09:25:55.641Z,19.51
2019-03-31T09:26:55.693Z,19.5
2019-03-31T09:27:55.787Z,19.52
2019-03-31T09:28:55.662Z,19.52
2019-03-31T09:29:55.843Z,19.52
2019-03-31T09:30:55.703Z,19.54
2019-03-31T09:31:55.770Z,19.55
2019-03-31T09:32:55.715Z,19.54
2019-03-31T09:33:55.759Z,19.56
2019-03-31T09:34:55.928Z,19.56
2019-03-31T09:35:55.783Z,19.56
2019-03-31T09:36:55.816Z,19.56
2019-03-31T09:37:55.953Z,19.56
2019-03-31T09:38:56.163Z,19.55
2019-03-31T09:39:55.816Z,19.58
2019-03-31T09:40:55.833Z,19.56
2019-03-31T09:41:56.022Z,19.58
2019-03-31T09:42:55.865Z,19.57
2019-03-31T09:43:55.740Z,19.56
2019-03-31T09:44:55.769Z,19.56
2019-03-31T09:45:55.717Z,19.59
2019-03-31T09:46:55.702Z,19.59
2019-03-31T09:47:55.954Z,19.57
2019-03-31T09:48:57.655Z,19.58
2019-03-31T09:49:55.753Z,19.6
2019-03-31T09:50:56.903Z,19.6
2019-03-31T09:51:55.791Z,19.62
2019-03-31T09:52:55.897Z,19.61
2019-03-31T09:53:55.806Z,19.63
2019-03-31T09:54:55.803Z,19.63
2019-03-31T09:55:55.936Z,19.66
2019-03-31T09:56:55.909Z,19.66
2019-03-31T09:57:55.931Z,19.66
2019-03-31T09:58:55.870Z,19.69
2019-03-31T09:59:56.241Z,19.69
2019-03-31T10:00:55.887Z,19.71
2019-03-31T10:01:55.888Z,19.71
2019-03-31T10:02:55.799Z,19.72
2019-03-31T10:03:55.726Z,19.75
2019-03-31T10:04:55.710Z,19.75
2019-03-31T10:06:11.480Z,19.76
2019-03-31T10:06:55.829Z,19.77
2019-03-31T10:07:55.825Z,19.77
2019-03-31T10:08:55.691Z,19.8
2019-03-31T10:09:55.740Z,19.82
2019-03-31T10:10:55.822Z,19.83
2019-03-31T10:11:55.906Z,19.83
2019-03-31T10:12:55.743Z,19.85
2019-03-31T10:13:55.765Z,19.84
2019-03-31T10:14:55.941Z,19.86
2019-03-31T10:15:55.865Z,19.87
2019-03-31T10:16:55.965Z,19.87
2019-03-31T10:17:55.919Z,19.87
2019-03-31T10:18:55.879Z,19.88
2019-03-31T10:19:55.868Z,19.87
2019-03-31T10:20:55.871Z,19.9
2019-03-31T10:21:55.964Z,19.9
2019-03-31T10:22:55.759Z,19.91
2019-03-31T10:23:55.799Z,19.92
2019-03-31T10:24:55.703Z,19.92
2019-03-31T10:25:55.792Z,19.94
2019-03-31T10:26:55.882Z,19.95
2019-03-31T10:27:55.746Z,19.95
2019-03-31T10:28:55.826Z,19.97
2019-03-31T10:29:56.627Z,20
2019-03-31T10:30:55.886Z,19.98
2019-03-31T10:31:55.883Z,19.99
2019-03-31T10:32:55.938Z,20.01
2019-03-31T10:33:55.920Z,20.03
2019-03-31T10:34:55.837Z,20.01
2019-03-31T10:35:55.859Z,20.04
2019-03-31T10:36:55.941Z,20.04
2019-03-31T10:37:55.955Z,20.04
2019-03-31T10:38:55.879Z,20.05
2019-03-31T10:39:55.908Z,20.07
2019-03-31T10:40:55.603Z,20.07
2019-03-31T10:41:55.792Z,20.07
2019-03-31T10:42:55.898Z,20.09
2019-03-31T10:43:57.619Z,20.09
2019-03-31T10:44:55.792Z,20.12
2019-03-31T10:45:55.693Z,20.11
2019-03-31T10:46:58.824Z,20.1
2019-03-31T10:47:55.734Z,20.13
2019-03-31T10:48:55.915Z,20.15
2019-03-31T10:49:55.746Z,20.14
2019-03-31T10:50:55.734Z,20.16
2019-03-31T10:51:55.896Z,20.16
2019-03-31T10:52:55.794Z,20.17
2019-03-31T10:53:55.810Z,20.15
2019-03-31T10:54:55.780Z,20.16
2019-03-31T10:55:55.787Z,20.19
2019-03-31T10:56:56.095Z,20.18
2019-03-31T10:57:55.918Z,20.18
2019-03-31T10:58:55.637Z,20.19
2019-03-31T10:59:55.656Z,20.2
2019-03-31T11:00:55.778Z,20.2
2019-03-31T11:01:55.755Z,20.19
2019-03-31T11:02:55.675Z,20.2
2019-03-31T11:03:55.760Z,20.2
2019-03-31T11:04:55.807Z,20.18
2019-03-31T11:05:55.826Z,20.2
2019-03-31T11:07:04.069Z,20.2
2019-03-31T11:07:55.754Z,20.19
2019-03-31T11:08:55.832Z,20.19
2019-03-31T11:09:55.837Z,20.22
2019-03-31T11:10:55.756Z,20.2
2019-03-31T11:11:55.807Z,20.2
2019-03-31T11:12:55.918Z,20.21
2019-03-31T11:13:55.840Z,20.24
2019-03-31T11:14:55.838Z,20.24
2019-03-31T11:15:57.906Z,20.24
2019-03-31T11:16:55.841Z,20.21
2019-03-31T11:17:55.883Z,20.24
2019-03-31T11:18:55.597Z,20.22
2019-03-31T11:19:55.653Z,20.24
2019-03-31T11:20:55.753Z,20.24
2019-03-31T11:21:55.658Z,20.24
2019-03-31T11:22:55.801Z,20.25
2019-03-31T11:23:55.670Z,20.26
2019-03-31T11:24:55.794Z,20.25
2019-03-31T11:25:55.853Z,20.27
2019-03-31T11:26:55.996Z,20.25
2019-03-31T11:27:56.083Z,20.25
2019-03-31T11:28:55.810Z,20.27
2019-03-31T11:29:55.762Z,20.27
2019-03-31T11:30:56.171Z,20.28
2019-03-31T11:31:55.881Z,20.29
2019-03-31T11:32:55.959Z,20.27
2019-03-31T11:33:55.859Z,20.27
2019-03-31T11:34:55.870Z,20.27
2019-03-31T11:35:55.739Z,20.25
2019-03-31T11:36:55.757Z,20.27
2019-03-31T11:37:55.738Z,20.28
2019-03-31T11:38:55.666Z,20.22
2019-03-31T11:39:55.646Z,20.22
2019-03-31T11:40:55.681Z,20.24
2019-03-31T11:41:55.704Z,20.24
2019-03-31T11:42:55.695Z,20.22
2019-03-31T11:43:55.860Z,20.21
2019-03-31T11:44:55.741Z,20.25
2019-03-31T11:45:55.675Z,20.2
2019-03-31T11:46:55.764Z,20.22
2019-03-31T11:47:55.854Z,20.22
2019-03-31T11:48:56.168Z,20.2
2019-03-31T11:49:55.802Z,20.2
2019-03-31T11:50:55.821Z,20.2
2019-03-31T11:51:55.821Z,20.21
2019-03-31T11:52:55.835Z,20.21
2019-03-31T11:53:55.904Z,20.2
2019-03-31T11:54:55.724Z,20.2
2019-03-31T11:55:55.611Z,20.2
2019-03-31T11:56:55.725Z,20.2
2019-03-31T11:57:55.648Z,20.21
2019-03-31T11:58:55.665Z,20.2
2019-03-31T11:59:56.067Z,20.21
2019-03-31T12:00:55.695Z,20.2
2019-03-31T12:01:55.784Z,20.21
2019-03-31T12:02:55.713Z,20.2
2019-03-31T12:03:55.702Z,20.24
2019-03-31T12:04:55.993Z,20.24
2019-03-31T12:05:55.865Z,20.22
2019-03-31T12:06:55.738Z,20.24
2019-03-31T12:07:55.816Z,20.22
2019-03-31T12:08:55.781Z,20.22
2019-03-31T12:09:55.765Z,20.22
2019-03-31T12:10:56.189Z,20.24
2019-03-31T12:11:56.035Z,20.24
2019-03-31T12:12:55.725Z,20.22
2019-03-31T12:13:55.698Z,20.24
2019-03-31T12:15:01.711Z,20.21
2019-03-31T12:15:55.677Z,20.19
2019-03-31T12:16:55.729Z,20.21
2019-03-31T12:17:55.725Z,20.2
2019-03-31T12:18:55.721Z,20.19
2019-03-31T12:19:55.736Z,20.2
2019-03-31T12:20:55.832Z,20.19
2019-03-31T12:21:55.785Z,20.18
2019-03-31T12:22:55.817Z,20.18
2019-03-31T12:23:55.790Z,20.18
2019-03-31T12:24:55.798Z,20.2
2019-03-31T12:25:55.928Z,20.16
2019-03-31T12:26:55.824Z,20.18
2019-03-31T12:27:56.062Z,20.18
2019-03-31T12:28:55.907Z,20.16
2019-03-31T12:29:55.669Z,20.14
2019-03-31T12:30:55.572Z,20.15
2019-03-31T12:31:55.598Z,20.13
2019-03-31T12:32:56.228Z,20.13
2019-03-31T12:33:55.616Z,20.15
2019-03-31T12:34:55.768Z,20.13
2019-03-31T12:35:55.827Z,20.13
2019-03-31T12:36:55.683Z,20.12
2019-03-31T12:37:55.824Z,20.12
2019-03-31T12:38:55.702Z,20.11
2019-03-31T12:39:55.765Z,20.1
2019-03-31T12:40:55.734Z,20.09
2019-03-31T12:41:55.752Z,20.1
2019-03-31T12:42:55.854Z,20.09
2019-03-31T12:43:55.822Z,20.06
2019-03-31T12:44:55.786Z,20.09
2019-03-31T12:45:55.852Z,20.06
2019-03-31T12:46:56.833Z,20.07
2019-03-31T12:47:55.615Z,20.07
2019-03-31T12:48:55.690Z,20.07
2019-03-31T12:49:55.712Z,20.07
2019-03-31T12:50:55.781Z,20.06
2019-03-31T12:51:55.713Z,20.07
2019-03-31T12:52:55.667Z,20.05
2019-03-31T12:53:55.855Z,20.04
2019-03-31T12:54:56.271Z,20.06
2019-03-31T12:56:00.976Z,20.05
2019-03-31T12:56:55.757Z,20.04